sensor_id;sensor_type;location;lat;lon;timestamp;P1;durP1;ratioP1;P2;durP2;ratioP2
62808;SDS011;48848;39.002;-94.584;2022-07-23T00:00:57;1.00;;;0.82;;
62808;SDS011;48848;39.002;-94.584;2022-07-23T00:03:23;1.13;;;0.90;;
62808;SDS011;48848;39.002;-94.584;2022-07-23T00:05:50;4.70;;;0.90;;
62808;SDS011;48848;39.002;-94.584;2022-07-23T00:08:16;2.47;;;0.82;;
62808;SDS011;48848;39.002;-94.584;2022-07-23T00:10:42;2.78;;;0.82;;
62808;SDS011;48848;39.002;-94.584;2022-07-23T00:13:08;2.28;;;0.77;;
62808;SDS011;48848;39.002;-94.584;2022-07-23T00:15:35;1.00;;;0.80;;
62808;SDS011;48848;39.002;-94.584;2022-07-23T00:18:01;0.77;;;0.70;;
62808;SDS011;48848;39.002;-94.584;2022-07-23T00:20:27;1.25;;;0.77;;
62808;SDS011;48848;39.002;-94.584;2022-07-23T00:22:54;1.00;;;0.90;;
62808;SDS011;48848;39.002;-94.584;2022-07-23T00:25:21;1.23;;;0.75;;
62808;SDS011;48848;39.002;-94.584;2022-07-23T00:27:48;0.77;;;0.77;;
62808;SDS011;48848;39.002;-94.584;2022-07-23T00:30:14;1.00;;;0.80;;
62808;SDS011;48848;39.002;-94.584;2022-07-23T00:32:50;1.50;;;0.70;;
62808;SDS011;48848;39.002;-94.584;2022-07-23T00:35:22;1.33;;;0.80;;
62808;SDS011;48848;39.002;-94.584;2022-07-23T00:37:49;0.95;;;0.80;;
62808;SDS011;48848;39.002;-94.584;2022-07-23T00:40:16;3.28;;;0.70;;
62808;SDS011;48848;39.002;-94.584;2022-07-23T00:42:42;2.72;;;0.93;;
62808;SDS011;48848;39.002;-94.584;2022-07-23T00:45:09;0.70;;;0.63;;
62808;SDS011;48848;39.002;-94.584;2022-07-23T00:47:35;3.20;;;0.98;;
62808;SDS011;48848;39.002;-94.584;2022-07-23T00:50:03;2.63;;;0.90;;
62808;SDS011;48848;39.002;-94.584;2022-07-23T00:52:31;2.55;;;0.90;;
62808;SDS011;48848;39.002;-94.584;2022-07-23T00:54:58;1.45;;;0.80;;
62808;SDS011;48848;39.002;-94.584;2022-07-23T00:57:24;1.23;;;0.90;;
62808;SDS011;48848;39.002;-94.584;2022-07-23T00:59:50;3.83;;;1.17;;
62808;SDS011;48848;39.002;-94.584;2022-07-23T01:02:17;5.35;;;2.00;;
62808;SDS011;48848;39.002;-94.584;2022-07-23T01:04:43;10.77;;;2.70;;
62808;SDS011;48848;39.002;-94.584;2022-07-23T01:07:10;11.23;;;2.83;;
62808;SDS011;48848;39.002;-94.584;2022-07-23T01:09:36;7.38;;;2.63;;
62808;SDS011;48848;39.002;-94.584;2022-07-23T01:12:03;8.10;;;2.50;;
62808;SDS011;48848;39.002;-94.584;2022-07-23T01:14:30;6.20;;;2.65;;
62808;SDS011;48848;39.002;-94.584;2022-07-23T01:16:56;9.52;;;2.17;;
62808;SDS011;48848;39.002;-94.584;2022-07-23T01:19:22;5.57;;;1.98;;
62808;SDS011;48848;39.002;-94.584;2022-07-23T01:21:49;4.75;;;2.03;;
62808;SDS011;48848;39.002;-94.584;2022-07-23T01:24:17;4.60;;;1.90;;
62808;SDS011;48848;39.002;-94.584;2022-07-23T01:26:47;4.32;;;1.67;;
62808;SDS011;48848;39.002;-94.584;2022-07-23T01:29:14;3.90;;;1.90;;
62808;SDS011;48848;39.002;-94.584;2022-07-23T01:31:41;2.97;;;1.50;;
62808;SDS011;48848;39.002;-94.584;2022-07-23T01:34:08;3.08;;;1.50;;
62808;SDS011;48848;39.002;-94.584;2022-07-23T01:36:35;4.13;;;1.67;;
62808;SDS011;48848;39.002;-94.584;2022-07-23T01:39:06;3.20;;;1.55;;
62808;SDS011;48848;39.002;-94.584;2022-07-23T01:41:33;7.07;;;1.88;;
62808;SDS011;48848;39.002;-94.584;2022-07-23T01:43:59;10.80;;;1.67;;
62808;SDS011;48848;39.002;-94.584;2022-07-23T01:46:26;9.23;;;1.70;;
62808;SDS011;48848;39.002;-94.584;2022-07-23T01:48:52;5.45;;;1.50;;
62808;SDS011;48848;39.002;-94.584;2022-07-23T01:51:18;4.22;;;1.60;;
62808;SDS011;48848;39.002;-94.584;2022-07-23T01:53:44;5.65;;;1.55;;
62808;SDS011;48848;39.002;-94.584;2022-07-23T01:56:10;2.42;;;1.30;;
62808;SDS011;48848;39.002;-94.584;2022-07-23T01:58:37;2.83;;;1.30;;
62808;SDS011;48848;39.002;-94.584;2022-07-23T02:01:03;5.03;;;1.40;;
62808;SDS011;48848;39.002;-94.584;2022-07-23T02:03:29;2.38;;;1.30;;
62808;SDS011;48848;39.002;-94.584;2022-07-23T02:05:56;4.13;;;1.27;;
62808;SDS011;48848;39.002;-94.584;2022-07-23T02:08:22;2.15;;;1.30;;
62808;SDS011;48848;39.002;-94.584;2022-07-23T02:10:48;2.15;;;1.30;;
62808;SDS011;48848;39.002;-94.584;2022-07-23T02:13:16;2.20;;;1.20;;
62808;SDS011;48848;39.002;-94.584;2022-07-23T02:15:43;2.10;;;1.30;;
62808;SDS011;48848;39.002;-94.584;2022-07-23T02:18:10;2.40;;;1.25;;
62808;SDS011;48848;39.002;-94.584;2022-07-23T02:20:36;2.55;;;1.20;;
62808;SDS011;48848;39.002;-94.584;2022-07-23T02:23:03;1.90;;;1.17;;
62808;SDS011;48848;39.002;-94.584;2022-07-23T02:25:30;2.08;;;1.20;;
62808;SDS011;48848;39.002;-94.584;2022-07-23T02:27:56;1.95;;;1.00;;
62808;SDS011;48848;39.002;-94.584;2022-07-23T02:30:23;2.28;;;1.20;;
62808;SDS011;48848;39.002;-94.584;2022-07-23T02:32:49;1.73;;;1.10;;
62808;SDS011;48848;39.002;-94.584;2022-07-23T02:35:15;2.30;;;1.10;;
62808;SDS011;48848;39.002;-94.584;2022-07-23T02:37:41;9.07;;;1.25;;
62808;SDS011;48848;39.002;-94.584;2022-07-23T02:40:07;6.60;;;1.20;;
62808;SDS011;48848;39.002;-94.584;2022-07-23T02:42:35;1.45;;;1.05;;
62808;SDS011;48848;39.002;-94.584;2022-07-23T02:45:01;5.07;;;1.17;;
62808;SDS011;48848;39.002;-94.584;2022-07-23T02:47:27;3.22;;;1.05;;
62808;SDS011;48848;39.002;-94.584;2022-07-23T02:49:53;5.30;;;1.23;;
62808;SDS011;48848;39.002;-94.584;2022-07-23T02:52:19;5.28;;;0.98;;
62808;SDS011;48848;39.002;-94.584;2022-07-23T02:54:46;2.97;;;1.00;;
62808;SDS011;48848;39.002;-94.584;2022-07-23T02:57:12;5.03;;;1.00;;
62808;SDS011;48848;39.002;-94.584;2022-07-23T02:59:38;3.35;;;1.10;;
62808;SDS011;48848;39.002;-94.584;2022-07-23T03:02:04;3.17;;;1.10;;
62808;SDS011;48848;39.002;-94.584;2022-07-23T03:04:30;4.00;;;1.10;;
62808;SDS011;48848;39.002;-94.584;2022-07-23T03:06:57;1.50;;;1.00;;
62808;SDS011;48848;39.002;-94.584;2022-07-23T03:09:23;2.92;;;1.00;;
62808;SDS011;48848;39.002;-94.584;2022-07-23T03:11:49;1.55;;;1.10;;
62808;SDS011;48848;39.002;-94.584;2022-07-23T03:14:15;2.22;;;1.08;;
62808;SDS011;48848;39.002;-94.584;2022-07-23T03:16:42;2.40;;;1.20;;
62808;SDS011;48848;39.002;-94.584;2022-07-23T03:19:08;3.63;;;1.10;;
62808;SDS011;48848;39.002;-94.584;2022-07-23T03:21:34;3.50;;;1.10;;
62808;SDS011;48848;39.002;-94.584;2022-07-23T03:24:06;3.40;;;1.30;;
62808;SDS011;48848;39.002;-94.584;2022-07-23T03:26:35;3.13;;;1.10;;
62808;SDS011;48848;39.002;-94.584;2022-07-23T03:29:02;5.60;;;1.10;;
62808;SDS011;48848;39.002;-94.584;2022-07-23T03:31:29;2.92;;;1.00;;
62808;SDS011;48848;39.002;-94.584;2022-07-23T03:33:58;2.65;;;1.20;;
62808;SDS011;48848;39.002;-94.584;2022-07-23T03:36:25;3.78;;;1.10;;
62808;SDS011;48848;39.002;-94.584;2022-07-23T03:38:51;2.40;;;1.10;;
62808;SDS011;48848;39.002;-94.584;2022-07-23T03:41:18;2.10;;;1.10;;
62808;SDS011;48848;39.002;-94.584;2022-07-23T03:43:45;5.80;;;1.10;;
62808;SDS011;48848;39.002;-94.584;2022-07-23T03:46:12;2.05;;;1.17;;
62808;SDS011;48848;39.002;-94.584;2022-07-23T03:48:38;1.88;;;1.00;;
62808;SDS011;48848;39.002;-94.584;2022-07-23T03:51:04;1.35;;;0.90;;
62808;SDS011;48848;39.002;-94.584;2022-07-23T03:53:31;2.97;;;1.02;;
62808;SDS011;48848;39.002;-94.584;2022-07-23T03:55:57;1.60;;;0.90;;
62808;SDS011;48848;39.002;-94.584;2022-07-23T03:58:23;1.45;;;0.95;;
62808;SDS011;48848;39.002;-94.584;2022-07-23T04:00:49;2.00;;;0.98;;
62808;SDS011;48848;39.002;-94.584;2022-07-23T04:03:15;1.90;;;1.00;;
62808;SDS011;48848;39.002;-94.584;2022-07-23T04:05:42;1.15;;;0.90;;
62808;SDS011;48848;39.002;-94.584;2022-07-23T04:08:08;1.45;;;0.90;;
62808;SDS011;48848;39.002;-94.584;2022-07-23T04:10:34;1.35;;;0.90;;
62808;SDS011;48848;39.002;-94.584;2022-07-23T04:13:00;0.93;;;0.80;;
62808;SDS011;48848;39.002;-94.584;2022-07-23T04:15:27;1.20;;;0.90;;
62808;SDS011;48848;39.002;-94.584;2022-07-23T04:17:53;1.60;;;0.82;;
62808;SDS011;48848;39.002;-94.584;2022-07-23T04:20:19;1.25;;;0.90;;
62808;SDS011;48848;39.002;-94.584;2022-07-23T04:22:45;1.17;;;0.90;;
62808;SDS011;48848;39.002;-94.584;2022-07-23T04:25:11;1.42;;;0.80;;
62808;SDS011;48848;39.002;-94.584;2022-07-23T04:27:38;1.27;;;0.73;;
62808;SDS011;48848;39.002;-94.584;2022-07-23T04:30:05;0.77;;;0.73;;
62808;SDS011;48848;39.002;-94.584;2022-07-23T04:32:31;1.50;;;0.90;;
62808;SDS011;48848;39.002;-94.584;2022-07-23T04:34:58;1.40;;;0.80;;
62808;SDS011;48848;39.002;-94.584;2022-07-23T04:37:24;1.20;;;0.90;;
62808;SDS011;48848;39.002;-94.584;2022-07-23T04:39:50;2.33;;;0.98;;
62808;SDS011;48848;39.002;-94.584;2022-07-23T04:42:16;1.15;;;0.90;;
62808;SDS011;48848;39.002;-94.584;2022-07-23T04:44:42;1.00;;;0.90;;
62808;SDS011;48848;39.002;-94.584;2022-07-23T04:47:08;1.00;;;0.82;;
62808;SDS011;48848;39.002;-94.584;2022-07-23T04:49:35;1.30;;;0.90;;
62808;SDS011;48848;39.002;-94.584;2022-07-23T04:52:02;1.00;;;0.80;;
62808;SDS011;48848;39.002;-94.584;2022-07-23T04:54:28;1.20;;;0.82;;
62808;SDS011;48848;39.002;-94.584;2022-07-23T04:56:54;0.93;;;0.80;;
62808;SDS011;48848;39.002;-94.584;2022-07-23T04:59:20;1.50;;;0.93;;
62808;SDS011;48848;39.002;-94.584;2022-07-23T05:01:47;1.25;;;0.90;;
62808;SDS011;48848;39.002;-94.584;2022-07-23T05:04:13;1.33;;;0.90;;
62808;SDS011;48848;39.002;-94.584;2022-07-23T05:06:39;2.05;;;0.88;;
62808;SDS011;48848;39.002;-94.584;2022-07-23T05:09:05;1.23;;;0.88;;
62808;SDS011;48848;39.002;-94.584;2022-07-23T05:11:32;1.23;;;0.82;;
62808;SDS011;48848;39.002;-94.584;2022-07-23T05:13:58;1.00;;;0.90;;
62808;SDS011;48848;39.002;-94.584;2022-07-23T05:16:24;1.25;;;0.90;;
62808;SDS011;48848;39.002;-94.584;2022-07-23T05:18:50;0.90;;;0.80;;
62808;SDS011;48848;39.002;-94.584;2022-07-23T05:21:16;1.10;;;0.90;;
62808;SDS011;48848;39.002;-94.584;2022-07-23T05:23:42;1.33;;;0.98;;
62808;SDS011;48848;39.002;-94.584;2022-07-23T05:26:09;1.40;;;0.88;;
62808;SDS011;48848;39.002;-94.584;2022-07-23T05:28:35;1.48;;;0.90;;
62808;SDS011;48848;39.002;-94.584;2022-07-23T05:31:01;1.08;;;0.80;;
62808;SDS011;48848;39.002;-94.584;2022-07-23T05:33:29;1.10;;;0.95;;
62808;SDS011;48848;39.002;-94.584;2022-07-23T05:36:04;1.45;;;1.00;;
62808;SDS011;48848;39.002;-94.584;2022-07-23T05:38:31;2.03;;;0.90;;
62808;SDS011;48848;39.002;-94.584;2022-07-23T05:40:58;1.10;;;0.90;;
62808;SDS011;48848;39.002;-94.584;2022-07-23T05:43:24;1.30;;;0.88;;
62808;SDS011;48848;39.002;-94.584;2022-07-23T05:45:51;1.20;;;0.80;;
62808;SDS011;48848;39.002;-94.584;2022-07-23T05:48:17;1.40;;;0.90;;
62808;SDS011;48848;39.002;-94.584;2022-07-23T05:50:43;1.10;;;0.82;;
62808;SDS011;48848;39.002;-94.584;2022-07-23T05:53:09;0.90;;;0.70;;
62808;SDS011;48848;39.002;-94.584;2022-07-23T05:55:35;0.93;;;0.80;;
62808;SDS011;48848;39.002;-94.584;2022-07-23T05:58:02;2.33;;;0.98;;
62808;SDS011;48848;39.002;-94.584;2022-07-23T06:00:28;1.48;;;1.02;;
62808;SDS011;48848;39.002;-94.584;2022-07-23T06:02:54;1.23;;;0.80;;
62808;SDS011;48848;39.002;-94.584;2022-07-23T06:05:21;1.85;;;0.90;;
62808;SDS011;48848;39.002;-94.584;2022-07-23T06:07:47;2.25;;;0.77;;
62808;SDS011;48848;39.002;-94.584;2022-07-23T06:10:14;1.90;;;0.90;;
62808;SDS011;48848;39.002;-94.584;2022-07-23T06:12:41;1.15;;;0.88;;
62808;SDS011;48848;39.002;-94.584;2022-07-23T06:15:07;2.15;;;0.95;;
62808;SDS011;48848;39.002;-94.584;2022-07-23T06:17:37;1.45;;;0.90;;
62808;SDS011;48848;39.002;-94.584;2022-07-23T06:20:07;1.80;;;1.10;;
62808;SDS011;48848;39.002;-94.584;2022-07-23T06:22:34;1.08;;;0.90;;
62808;SDS011;48848;39.002;-94.584;2022-07-23T06:25:01;0.93;;;0.68;;
62808;SDS011;48848;39.002;-94.584;2022-07-23T06:27:27;1.20;;;0.80;;
62808;SDS011;48848;39.002;-94.584;2022-07-23T06:29:54;0.70;;;0.70;;
62808;SDS011;48848;39.002;-94.584;2022-07-23T06:32:20;1.88;;;0.98;;
62808;SDS011;48848;39.002;-94.584;2022-07-23T06:34:47;1.10;;;0.80;;
62808;SDS011;48848;39.002;-94.584;2022-07-23T06:37:13;1.10;;;0.90;;
62808;SDS011;48848;39.002;-94.584;2022-07-23T06:39:39;2.05;;;1.00;;
62808;SDS011;48848;39.002;-94.584;2022-07-23T06:42:05;1.35;;;0.88;;
62808;SDS011;48848;39.002;-94.584;2022-07-23T06:44:31;1.10;;;0.85;;
62808;SDS011;48848;39.002;-94.584;2022-07-23T06:46:57;1.42;;;0.90;;
62808;SDS011;48848;39.002;-94.584;2022-07-23T06:49:24;1.10;;;0.82;;
62808;SDS011;48848;39.002;-94.584;2022-07-23T06:51:50;1.42;;;0.85;;
62808;SDS011;48848;39.002;-94.584;2022-07-23T06:54:16;1.08;;;0.90;;
62808;SDS011;48848;39.002;-94.584;2022-07-23T06:56:42;1.65;;;1.00;;
62808;SDS011;48848;39.002;-94.584;2022-07-23T06:59:08;1.17;;;0.85;;
62808;SDS011;48848;39.002;-94.584;2022-07-23T07:01:35;2.10;;;0.77;;
62808;SDS011;48848;39.002;-94.584;2022-07-23T07:04:01;1.23;;;0.90;;
62808;SDS011;48848;39.002;-94.584;2022-07-23T07:06:27;3.25;;;1.00;;
62808;SDS011;48848;39.002;-94.584;2022-07-23T07:08:53;0.90;;;0.80;;
62808;SDS011;48848;39.002;-94.584;2022-07-23T07:11:20;1.63;;;1.00;;
62808;SDS011;48848;39.002;-94.584;2022-07-23T07:13:47;1.05;;;0.88;;
62808;SDS011;48848;39.002;-94.584;2022-07-23T07:16:13;1.90;;;0.85;;
62808;SDS011;48848;39.002;-94.584;2022-07-23T07:18:39;1.13;;;0.90;;
62808;SDS011;48848;39.002;-94.584;2022-07-23T07:21:05;1.30;;;0.88;;
62808;SDS011;48848;39.002;-94.584;2022-07-23T07:23:31;1.75;;;1.00;;
62808;SDS011;48848;39.002;-94.584;2022-07-23T07:25:58;2.17;;;0.90;;
62808;SDS011;48848;39.002;-94.584;2022-07-23T07:28:24;0.88;;;0.80;;
62808;SDS011;48848;39.002;-94.584;2022-07-23T07:30:50;1.00;;;0.88;;
62808;SDS011;48848;39.002;-94.584;2022-07-23T07:33:16;1.42;;;0.90;;
62808;SDS011;48848;39.002;-94.584;2022-07-23T07:35:42;1.52;;;0.80;;
62808;SDS011;48848;39.002;-94.584;2022-07-23T07:38:09;1.10;;;0.90;;
62808;SDS011;48848;39.002;-94.584;2022-07-23T07:40:35;1.23;;;0.80;;
62808;SDS011;48848;39.002;-94.584;2022-07-23T07:43:01;0.88;;;0.80;;
62808;SDS011;48848;39.002;-94.584;2022-07-23T07:45:28;0.98;;;0.82;;
62808;SDS011;48848;39.002;-94.584;2022-07-23T07:47:55;1.23;;;0.95;;
62808;SDS011;48848;39.002;-94.584;2022-07-23T07:50:21;1.30;;;0.90;;
62808;SDS011;48848;39.002;-94.584;2022-07-23T07:52:47;1.42;;;0.90;;
62808;SDS011;48848;39.002;-94.584;2022-07-23T07:55:14;2.58;;;0.90;;
62808;SDS011;48848;39.002;-94.584;2022-07-23T07:57:40;1.55;;;1.02;;
62808;SDS011;48848;39.002;-94.584;2022-07-23T08:00:07;1.05;;;0.90;;
62808;SDS011;48848;39.002;-94.584;2022-07-23T08:02:46;2.08;;;1.00;;
62808;SDS011;48848;39.002;-94.584;2022-07-23T08:05:14;1.08;;;0.90;;
62808;SDS011;48848;39.002;-94.584;2022-07-23T08:07:43;0.98;;;0.77;;
62808;SDS011;48848;39.002;-94.584;2022-07-23T08:10:09;1.70;;;1.00;;
62808;SDS011;48848;39.002;-94.584;2022-07-23T08:15:13;3.45;;;1.00;;
62808;SDS011;48848;39.002;-94.584;2022-07-23T08:17:41;1.63;;;1.00;;
62808;SDS011;48848;39.002;-94.584;2022-07-23T08:20:09;2.00;;;1.00;;
62808;SDS011;48848;39.002;-94.584;2022-07-23T08:22:43;1.13;;;0.82;;
62808;SDS011;48848;39.002;-94.584;2022-07-23T08:25:10;1.40;;;0.90;;
62808;SDS011;48848;39.002;-94.584;2022-07-23T08:27:37;1.00;;;0.90;;
62808;SDS011;48848;39.002;-94.584;2022-07-23T08:30:03;0.90;;;0.80;;
62808;SDS011;48848;39.002;-94.584;2022-07-23T08:32:30;1.75;;;0.98;;
62808;SDS011;48848;39.002;-94.584;2022-07-23T08:34:56;1.55;;;1.10;;
62808;SDS011;48848;39.002;-94.584;2022-07-23T08:37:22;1.52;;;0.90;;
62808;SDS011;48848;39.002;-94.584;2022-07-23T08:39:48;1.88;;;1.00;;
62808;SDS011;48848;39.002;-94.584;2022-07-23T08:42:18;1.48;;;1.00;;
62808;SDS011;48848;39.002;-94.584;2022-07-23T08:44:46;1.00;;;0.90;;
62808;SDS011;48848;39.002;-94.584;2022-07-23T08:47:13;1.45;;;1.00;;
62808;SDS011;48848;39.002;-94.584;2022-07-23T08:49:41;1.50;;;1.00;;
62808;SDS011;48848;39.002;-94.584;2022-07-23T08:52:07;1.02;;;0.90;;
62808;SDS011;48848;39.002;-94.584;2022-07-23T08:54:34;1.45;;;1.00;;
62808;SDS011;48848;39.002;-94.584;2022-07-23T08:57:01;1.45;;;0.82;;
62808;SDS011;48848;39.002;-94.584;2022-07-23T08:59:27;1.08;;;0.82;;
62808;SDS011;48848;39.002;-94.584;2022-07-23T09:01:54;2.20;;;1.20;;
62808;SDS011;48848;39.002;-94.584;2022-07-23T09:04:20;1.92;;;1.00;;
62808;SDS011;48848;39.002;-94.584;2022-07-23T09:06:47;1.75;;;1.00;;
62808;SDS011;48848;39.002;-94.584;2022-07-23T09:09:19;1.15;;;0.90;;
62808;SDS011;48848;39.002;-94.584;2022-07-23T09:11:47;1.42;;;0.90;;
62808;SDS011;48848;39.002;-94.584;2022-07-23T09:14:43;1.58;;;0.98;;
62808;SDS011;48848;39.002;-94.584;2022-07-23T09:17:12;1.00;;;0.90;;
62808;SDS011;48848;39.002;-94.584;2022-07-23T09:19:40;1.15;;;0.95;;
62808;SDS011;48848;39.002;-94.584;2022-07-23T09:25:03;1.70;;;1.05;;
62808;SDS011;48848;39.002;-94.584;2022-07-23T09:30:14;0.88;;;0.80;;
62808;SDS011;48848;39.002;-94.584;2022-07-23T09:32:41;1.10;;;0.90;;
62808;SDS011;48848;39.002;-94.584;2022-07-23T09:35:08;1.27;;;0.90;;
62808;SDS011;48848;39.002;-94.584;2022-07-23T09:37:34;1.40;;;1.00;;
62808;SDS011;48848;39.002;-94.584;2022-07-23T09:40:06;1.25;;;1.00;;
62808;SDS011;48848;39.002;-94.584;2022-07-23T09:42:41;1.20;;;1.00;;
62808;SDS011;48848;39.002;-94.584;2022-07-23T09:45:21;2.20;;;1.10;;
62808;SDS011;48848;39.002;-94.584;2022-07-23T09:47:47;1.30;;;1.00;;
62808;SDS011;48848;39.002;-94.584;2022-07-23T09:50:13;1.83;;;0.90;;
62808;SDS011;48848;39.002;-94.584;2022-07-23T09:52:47;1.25;;;1.00;;
62808;SDS011;48848;39.002;-94.584;2022-07-23T09:55:15;0.90;;;0.80;;
62808;SDS011;48848;39.002;-94.584;2022-07-23T09:57:43;1.35;;;0.90;;
62808;SDS011;48848;39.002;-94.584;2022-07-23T10:00:10;1.70;;;1.08;;
62808;SDS011;48848;39.002;-94.584;2022-07-23T10:02:38;1.42;;;1.00;;
62808;SDS011;48848;39.002;-94.584;2022-07-23T10:05:05;1.55;;;1.00;;
62808;SDS011;48848;39.002;-94.584;2022-07-23T10:07:33;1.42;;;1.00;;
62808;SDS011;48848;39.002;-94.584;2022-07-23T10:10:03;1.33;;;1.00;;
62808;SDS011;48848;39.002;-94.584;2022-07-23T10:12:30;1.60;;;1.00;;
62808;SDS011;48848;39.002;-94.584;2022-07-23T10:15:06;1.13;;;0.90;;
62808;SDS011;48848;39.002;-94.584;2022-07-23T10:17:33;1.88;;;1.00;;
62808;SDS011;48848;39.002;-94.584;2022-07-23T10:20:00;1.17;;;1.00;;
62808;SDS011;48848;39.002;-94.584;2022-07-23T10:22:29;1.40;;;1.00;;
62808;SDS011;48848;39.002;-94.584;2022-07-23T10:28:06;1.75;;;1.10;;
62808;SDS011;48848;39.002;-94.584;2022-07-23T10:31:19;3.10;;;0.98;;
62808;SDS011;48848;39.002;-94.584;2022-07-23T10:34:02;1.92;;;1.00;;
62808;SDS011;48848;39.002;-94.584;2022-07-23T10:36:55;1.10;;;1.00;;
62808;SDS011;48848;39.002;-94.584;2022-07-23T10:39:32;1.45;;;1.00;;
62808;SDS011;48848;39.002;-94.584;2022-07-23T10:44:40;0.85;;;0.80;;
62808;SDS011;48848;39.002;-94.584;2022-07-23T10:47:07;2.65;;;1.40;;
62808;SDS011;48848;39.002;-94.584;2022-07-23T10:49:40;1.20;;;0.90;;
62808;SDS011;48848;39.002;-94.584;2022-07-23T10:54:50;4.47;;;0.82;;
62808;SDS011;48848;39.002;-94.584;2022-07-23T10:57:18;1.40;;;1.00;;
62808;SDS011;48848;39.002;-94.584;2022-07-23T11:02:33;1.38;;;0.90;;
62808;SDS011;48848;39.002;-94.584;2022-07-23T11:05:03;1.23;;;0.90;;
62808;SDS011;48848;39.002;-94.584;2022-07-23T11:07:30;1.00;;;0.90;;
62808;SDS011;48848;39.002;-94.584;2022-07-23T11:09:56;1.23;;;0.88;;
62808;SDS011;48848;39.002;-94.584;2022-07-23T11:15:09;2.88;;;0.88;;
62808;SDS011;48848;39.002;-94.584;2022-07-23T11:22:35;1.02;;;0.93;;
62808;SDS011;48848;39.002;-94.584;2022-07-23T11:25:05;2.10;;;1.00;;
62808;SDS011;48848;39.002;-94.584;2022-07-23T11:27:41;1.30;;;0.90;;
62808;SDS011;48848;39.002;-94.584;2022-07-23T11:30:10;1.73;;;0.80;;
62808;SDS011;48848;39.002;-94.584;2022-07-23T11:33:29;2.50;;;1.00;;
62808;SDS011;48848;39.002;-94.584;2022-07-23T11:35:50;3.83;;;0.90;;
62808;SDS011;48848;39.002;-94.584;2022-07-23T11:38:28;3.22;;;0.90;;
62808;SDS011;48848;39.002;-94.584;2022-07-23T11:40:57;1.40;;;0.98;;
62808;SDS011;48848;39.002;-94.584;2022-07-23T11:43:24;1.52;;;0.90;;
62808;SDS011;48848;39.002;-94.584;2022-07-23T11:45:51;2.05;;;0.95;;
62808;SDS011;48848;39.002;-94.584;2022-07-23T11:48:21;1.48;;;0.90;;
62808;SDS011;48848;39.002;-94.584;2022-07-23T11:50:49;1.42;;;0.90;;
62808;SDS011;48848;39.002;-94.584;2022-07-23T11:53:27;2.13;;;1.27;;
62808;SDS011;48848;39.002;-94.584;2022-07-23T11:55:57;1.45;;;1.00;;
62808;SDS011;48848;39.002;-94.584;2022-07-23T11:58:32;2.03;;;0.90;;
62808;SDS011;48848;39.002;-94.584;2022-07-23T12:00:58;1.08;;;0.82;;
62808;SDS011;48848;39.002;-94.584;2022-07-23T12:03:24;1.90;;;1.00;;
62808;SDS011;48848;39.002;-94.584;2022-07-23T12:05:55;1.10;;;0.77;;
62808;SDS011;48848;39.002;-94.584;2022-07-23T12:10:48;2.85;;;0.90;;
62808;SDS011;48848;39.002;-94.584;2022-07-23T12:13:16;1.52;;;0.90;;
62808;SDS011;48848;39.002;-94.584;2022-07-23T12:15:48;1.40;;;1.00;;
62808;SDS011;48848;39.002;-94.584;2022-07-23T12:18:19;1.75;;;1.00;;
62808;SDS011;48848;39.002;-94.584;2022-07-23T12:20:51;0.93;;;0.73;;
62808;SDS011;48848;39.002;-94.584;2022-07-23T12:23:23;1.85;;;1.05;;
62808;SDS011;48848;39.002;-94.584;2022-07-23T12:25:50;4.53;;;0.90;;
62808;SDS011;48848;39.002;-94.584;2022-07-23T12:28:22;1.38;;;1.00;;
62808;SDS011;48848;39.002;-94.584;2022-07-23T12:30:54;2.53;;;1.08;;
62808;SDS011;48848;39.002;-94.584;2022-07-23T12:35:59;2.75;;;1.10;;
62808;SDS011;48848;39.002;-94.584;2022-07-23T12:38:36;2.22;;;1.10;;
62808;SDS011;48848;39.002;-94.584;2022-07-23T12:41:04;1.73;;;1.10;;
62808;SDS011;48848;39.002;-94.584;2022-07-23T12:43:32;2.40;;;1.08;;
62808;SDS011;48848;39.002;-94.584;2022-07-23T12:48:33;1.70;;;1.17;;
62808;SDS011;48848;39.002;-94.584;2022-07-23T12:51:06;1.88;;;0.90;;
62808;SDS011;48848;39.002;-94.584;2022-07-23T12:53:41;1.63;;;1.10;;
62808;SDS011;48848;39.002;-94.584;2022-07-23T12:56:14;3.80;;;1.17;;
62808;SDS011;48848;39.002;-94.584;2022-07-23T13:04:22;1.48;;;0.98;;
62808;SDS011;48848;39.002;-94.584;2022-07-23T13:06:47;2.25;;;1.30;;
62808;SDS011;48848;39.002;-94.584;2022-07-23T13:09:16;2.20;;;1.15;;
62808;SDS011;48848;39.002;-94.584;2022-07-23T13:11:43;2.67;;;1.30;;
62808;SDS011;48848;39.002;-94.584;2022-07-23T13:14:11;2.95;;;1.27;;
62808;SDS011;48848;39.002;-94.584;2022-07-23T13:16:38;2.90;;;1.30;;
62808;SDS011;48848;39.002;-94.584;2022-07-23T13:19:05;2.67;;;1.33;;
62808;SDS011;48848;39.002;-94.584;2022-07-23T13:21:31;3.03;;;1.40;;
62808;SDS011;48848;39.002;-94.584;2022-07-23T13:23:58;2.78;;;1.30;;
62808;SDS011;48848;39.002;-94.584;2022-07-23T13:26:25;6.88;;;1.70;;
62808;SDS011;48848;39.002;-94.584;2022-07-23T13:28:52;3.58;;;1.55;;
62808;SDS011;48848;39.002;-94.584;2022-07-23T13:31:19;4.18;;;1.75;;
62808;SDS011;48848;39.002;-94.584;2022-07-23T13:33:45;5.65;;;1.90;;
62808;SDS011;48848;39.002;-94.584;2022-07-23T13:36:12;4.78;;;1.70;;
62808;SDS011;48848;39.002;-94.584;2022-07-23T13:38:39;4.50;;;1.88;;
62808;SDS011;48848;39.002;-94.584;2022-07-23T13:41:05;5.00;;;1.80;;
62808;SDS011;48848;39.002;-94.584;2022-07-23T13:43:31;3.40;;;1.55;;
62808;SDS011;48848;39.002;-94.584;2022-07-23T13:45:58;3.25;;;1.50;;
62808;SDS011;48848;39.002;-94.584;2022-07-23T13:48:25;3.55;;;1.60;;
62808;SDS011;48848;39.002;-94.584;2022-07-23T13:50:51;4.72;;;1.80;;
62808;SDS011;48848;39.002;-94.584;2022-07-23T13:53:18;3.53;;;1.70;;
62808;SDS011;48848;39.002;-94.584;2022-07-23T13:55:46;3.30;;;1.58;;
62808;SDS011;48848;39.002;-94.584;2022-07-23T13:58:14;3.63;;;1.63;;
62808;SDS011;48848;39.002;-94.584;2022-07-23T14:00:42;4.25;;;1.52;;
62808;SDS011;48848;39.002;-94.584;2022-07-23T14:03:11;3.03;;;1.40;;
62808;SDS011;48848;39.002;-94.584;2022-07-23T14:05:38;4.63;;;1.58;;
62808;SDS011;48848;39.002;-94.584;2022-07-23T14:08:04;5.03;;;1.77;;
62808;SDS011;48848;39.002;-94.584;2022-07-23T14:10:30;5.13;;;1.77;;
62808;SDS011;48848;39.002;-94.584;2022-07-23T14:12:57;5.40;;;1.83;;
62808;SDS011;48848;39.002;-94.584;2022-07-23T14:15:24;3.95;;;1.73;;
62808;SDS011;48848;39.002;-94.584;2022-07-23T14:17:52;4.88;;;1.70;;
62808;SDS011;48848;39.002;-94.584;2022-07-23T14:20:19;6.55;;;1.95;;
62808;SDS011;48848;39.002;-94.584;2022-07-23T14:22:45;3.25;;;1.50;;
62808;SDS011;48848;39.002;-94.584;2022-07-23T14:25:11;3.47;;;1.52;;
62808;SDS011;48848;39.002;-94.584;2022-07-23T14:27:38;2.90;;;1.40;;
62808;SDS011;48848;39.002;-94.584;2022-07-23T14:30:05;2.80;;;1.40;;
62808;SDS011;48848;39.002;-94.584;2022-07-23T14:32:32;2.75;;;1.35;;
62808;SDS011;48848;39.002;-94.584;2022-07-23T14:35:00;4.50;;;1.45;;
62808;SDS011;48848;39.002;-94.584;2022-07-23T14:37:27;2.10;;;1.20;;
62808;SDS011;48848;39.002;-94.584;2022-07-23T14:39:53;2.83;;;1.38;;
62808;SDS011;48848;39.002;-94.584;2022-07-23T14:42:20;3.05;;;1.42;;
62808;SDS011;48848;39.002;-94.584;2022-07-23T14:44:46;2.85;;;1.35;;
62808;SDS011;48848;39.002;-94.584;2022-07-23T14:47:12;3.72;;;1.50;;
62808;SDS011;48848;39.002;-94.584;2022-07-23T14:49:38;2.67;;;1.40;;
62808;SDS011;48848;39.002;-94.584;2022-07-23T14:52:05;2.88;;;1.42;;
62808;SDS011;48848;39.002;-94.584;2022-07-23T14:54:31;3.15;;;1.38;;
62808;SDS011;48848;39.002;-94.584;2022-07-23T14:56:58;3.75;;;1.55;;
62808;SDS011;48848;39.002;-94.584;2022-07-23T14:59:25;4.47;;;1.75;;
62808;SDS011;48848;39.002;-94.584;2022-07-23T15:01:52;3.88;;;1.60;;
62808;SDS011;48848;39.002;-94.584;2022-07-23T15:04:19;6.85;;;1.85;;